Center Junction, Iowa
Current Conditions -  °F | °C
As of 3:35 AM on Saturday 25 Oct 2014 (Local Time) from KMXO Reporting Station
Haze Haze  
Wind Chill: 57°   Ceiling: 300
Heat Index: 57°   Visibility: 1mi
Dew Point: 57°   Wind: 7mph
Humidity: 100%   Direction: 270°W
Pressure: 29.94"   Gusts: NA
Location:  42.12°N, 91.09°W
Report Text: KMXO 250835Z AUTO 27006KT 1SM BR OVC003 14/14 A2994 RMK AO2
Loading
Personal Weather Stations






























Interactive Weather Map
Tropical Storm Tracking
New forecast layout! Learn more

10-Day Weather Forecast

Advertisements
Track Severe Weather on mobile